createdAt,value
2023-05-13T00:02:08.609Z,7.82
2023-05-13T00:07:10.619Z,7.43
2023-05-13T00:12:11.266Z,8.30
2023-05-13T00:17:11.912Z,8.05
2023-05-13T00:22:13.881Z,8.85
2023-05-13T00:27:14.489Z,8.02
2023-05-13T00:32:15.657Z,8.50
2023-05-13T00:37:17.690Z,9.50
2023-05-13T00:42:18.357Z,8.88
2023-05-13T00:47:19.154Z,8.63
2023-05-13T00:52:21.377Z,8.52
2023-05-13T00:57:22.243Z,7.90
2023-05-13T01:02:28.526Z,8.43
2023-05-13T01:07:39.167Z,8.20
2023-05-13T01:12:42.275Z,8.60
2023-05-13T01:17:48.713Z,8.13
2023-05-13T01:22:51.423Z,8.88
2023-05-13T01:27:53.145Z,8.50
2023-05-13T01:32:54.930Z,8.13
2023-05-13T01:37:58.498Z,8.60
2023-05-13T01:42:59.493Z,8.43
2023-05-13T01:48:00.657Z,8.75
2023-05-13T01:53:12.437Z,9.30
2023-05-13T01:58:13.275Z,8.50
2023-05-13T02:03:14.373Z,8.18
2023-05-13T02:08:16.916Z,8.40
2023-05-13T02:13:17.816Z,9.25
2023-05-13T02:18:18.684Z,9.25
2023-05-13T02:23:20.720Z,8.38
2023-05-13T02:28:21.442Z,8.38
2023-05-13T02:33:22.165Z,8.35
2023-05-13T02:38:24.855Z,8.25
2023-05-13T02:43:27.530Z,8.15
2023-05-13T02:48:33.455Z,7.68
2023-05-13T02:53:36.924Z,8.43
2023-05-13T02:58:39.586Z,7.82
2023-05-13T03:03:40.701Z,8.23
2023-05-13T03:08:42.911Z,8.30
2023-05-13T03:13:43.633Z,8.85
2023-05-13T03:18:44.389Z,8.27
2023-05-13T03:23:46.521Z,8.65
2023-05-13T03:28:47.712Z,9.25
2023-05-13T03:33:49.619Z,7.82
2023-05-13T03:38:51.944Z,8.57
2023-05-13T03:43:52.671Z,7.97
2023-05-13T03:48:53.476Z,7.72
2023-05-13T03:53:55.728Z,7.53
2023-05-13T03:58:58.412Z,7.20
2023-05-13T04:03:59.198Z,6.68
2023-05-13T04:09:01.273Z,7.35
2023-05-13T04:14:01.974Z,6.93
2023-05-13T04:19:02.732Z,5.63
2023-05-13T04:24:05.330Z,6.75
2023-05-13T04:29:05.996Z,5.95
2023-05-13T04:34:06.802Z,6.53
2023-05-13T04:39:10.478Z,5.65
2023-05-13T04:44:11.562Z,5.88
2023-05-13T04:49:12.268Z,5.40
2023-05-13T04:54:15.205Z,5.70
2023-05-13T04:59:16.057Z,7.15
2023-05-13T05:04:16.885Z,5.40
2023-05-13T05:09:20.217Z,4.75
2023-05-13T05:14:23.653Z,5.30
2023-05-13T05:19:25.110Z,5.22
2023-05-13T05:24:29.532Z,4.50
2023-05-13T05:29:30.339Z,5.35
2023-05-13T05:34:31.172Z,5.18
2023-05-13T05:39:35.272Z,4.70
2023-05-13T05:44:36.181Z,5.10
2023-05-13T05:49:37.322Z,4.05
2023-05-13T05:54:40.278Z,4.38
2023-05-13T05:59:41.018Z,4.55
2023-05-13T06:04:42.077Z,4.10
2023-05-13T06:09:44.339Z,4.03
2023-05-13T06:14:45.198Z,4.07
2023-05-13T06:19:46.013Z,3.80
2023-05-13T06:24:48.053Z,3.80
2023-05-13T06:29:48.725Z,3.38
2023-05-13T06:34:52.973Z,3.58
2023-05-13T06:39:56.305Z,3.50
2023-05-13T06:44:57.821Z,3.83
2023-05-13T06:50:03.065Z,4.80
2023-05-13T06:55:06.853Z,3.90
2023-05-13T07:00:08.442Z,4.00
2023-05-13T07:05:11.176Z,3.58
2023-05-13T07:10:13.600Z,3.42
2023-05-13T07:15:14.269Z,3.05
2023-05-13T07:20:15.093Z,3.20
2023-05-13T07:25:17.405Z,2.70
2023-05-13T07:30:18.174Z,2.65
2023-05-13T07:35:18.983Z,3.17
2023-05-13T07:40:22.112Z,2.25
2023-05-13T07:45:23.306Z,2.50
2023-05-13T07:50:24.360Z,2.13
2023-05-13T07:55:26.437Z,2.70
2023-05-13T08:00:27.244Z,2.47
2023-05-13T08:05:28.006Z,2.00
2023-05-13T08:10:30.505Z,2.13
2023-05-13T08:15:31.181Z,2.30
2023-05-13T08:20:31.957Z,2.83
2023-05-13T08:25:34.045Z,2.50
2023-05-13T08:30:34.741Z,2.83
2023-05-13T08:35:35.410Z,2.78
2023-05-13T08:40:37.881Z,2.50
2023-05-13T08:45:40.279Z,2.30
2023-05-13T08:50:47.320Z,2.42
2023-05-13T08:55:51.254Z,2.58
2023-05-13T09:00:54.130Z,2.22
2023-05-13T09:05:54.956Z,2.85
2023-05-13T09:10:57.927Z,2.50
2023-05-13T09:15:58.961Z,2.13
2023-05-13T09:20:59.765Z,2.63
2023-05-13T09:26:01.876Z,2.42
2023-05-13T09:31:02.897Z,2.63
2023-05-13T09:36:05.926Z,2.63
2023-05-13T09:41:08.033Z,2.45
2023-05-13T09:46:10.434Z,2.17
2023-05-13T09:51:12.068Z,2.42
2023-05-13T09:56:14.070Z,3.00
2023-05-13T10:01:14.805Z,7.13
2023-05-13T10:06:17.847Z,3.83
2023-05-13T10:11:20.559Z,2.80
2023-05-13T10:16:21.353Z,2.47
2023-05-13T10:21:22.581Z,2.58
2023-05-13T10:26:25.001Z,2.47
2023-05-13T10:31:26.895Z,2.40
2023-05-13T10:36:43.445Z,2.42
2023-05-13T10:42:37.196Z,2.60
2023-05-13T10:47:38.764Z,2.55
2023-05-13T10:52:44.150Z,2.30
2023-05-13T10:58:05.287Z,1.92
2023-05-13T11:03:29.460Z,2.35
2023-05-13T11:08:40.640Z,2.13
2023-05-13T11:13:42.687Z,2.67
2023-05-13T11:18:43.627Z,2.58
2023-05-13T11:23:56.805Z,2.33
2023-05-13T11:29:06.427Z,2.55
2023-05-13T11:34:10.869Z,2.38
2023-05-13T11:39:14.181Z,2.53
2023-05-13T11:44:17.628Z,2.25
2023-05-13T11:49:34.969Z,2.33
2023-05-13T11:54:46.502Z,2.08
2023-05-13T11:59:58.614Z,1.90
2023-05-13T12:05:01.783Z,1.80
2023-05-13T12:10:04.052Z,2.25
2023-05-13T12:15:10.233Z,2.45
2023-05-13T12:20:13.319Z,4.13
2023-05-13T12:25:40.280Z,1.90
2023-05-13T12:30:43.759Z,1.70
2023-05-13T12:35:45.065Z,1.55
2023-05-13T12:40:46.741Z,1.85
2023-05-13T12:45:54.785Z,1.40
2023-05-13T12:50:56.441Z,1.75
2023-05-13T12:55:57.324Z,1.70
2023-05-13T13:00:59.403Z,2.10
2023-05-13T13:06:00.237Z,1.60
2023-05-13T13:11:01.362Z,2.05
2023-05-13T13:16:03.459Z,1.75
2023-05-13T13:21:05.330Z,1.73
2023-05-13T13:26:06.147Z,1.95
2023-05-13T13:31:08.670Z,1.77
2023-05-13T13:36:09.682Z,1.50
2023-05-13T13:41:10.398Z,1.70
2023-05-13T13:46:13.869Z,2.35
2023-05-13T13:51:15.399Z,2.05
2023-05-13T13:56:16.290Z,2.30
2023-05-13T14:01:19.685Z,1.88
2023-05-13T14:06:20.924Z,2.20
2023-05-13T14:11:24.463Z,1.83
2023-05-13T14:16:26.969Z,2.20
2023-05-13T14:21:27.695Z,2.10
2023-05-13T14:26:28.550Z,2.00
2023-05-13T14:31:30.953Z,2.08
2023-05-13T14:36:32.797Z,2.08
2023-05-13T14:41:33.798Z,2.40
2023-05-13T14:46:38.201Z,2.22
2023-05-13T14:51:38.986Z,2.70
2023-05-13T14:56:41.521Z,2.70
2023-05-13T15:01:43.602Z,2.30
2023-05-13T15:06:46.886Z,1.85
2023-05-13T15:11:47.667Z,2.15
2023-05-13T15:16:49.758Z,2.22
2023-05-13T15:21:50.866Z,2.40
2023-05-13T15:26:51.577Z,2.10
2023-05-13T15:31:54.401Z,2.78
2023-05-13T15:36:55.196Z,3.35
2023-05-13T15:41:56.297Z,2.65
2023-05-13T15:46:58.400Z,2.30
2023-05-13T15:51:59.172Z,2.30
2023-05-13T15:57:00.206Z,2.13
2023-05-13T16:02:03.527Z,2.00
2023-05-13T16:07:07.246Z,2.13
2023-05-13T16:12:08.661Z,2.30
2023-05-13T16:17:10.820Z,2.80
2023-05-13T16:22:38.124Z,2.10
2023-05-13T16:27:40.513Z,2.35
2023-05-13T16:32:42.858Z,2.10
2023-05-13T16:37:43.580Z,2.53
2023-05-13T16:42:44.339Z,2.63
2023-05-13T16:47:46.587Z,2.97
2023-05-13T16:52:47.502Z,3.00
2023-05-13T16:57:48.352Z,3.58
2023-05-13T17:02:50.581Z,3.65
2023-05-13T17:07:51.320Z,3.53
2023-05-13T17:12:53.799Z,3.42
2023-05-13T17:17:57.126Z,3.20
2023-05-13T17:22:58.999Z,3.25
2023-05-13T17:27:59.998Z,3.05
2023-05-13T17:33:02.138Z,3.50
2023-05-13T17:38:02.858Z,3.60
2023-05-13T17:43:04.028Z,3.97
2023-05-13T17:48:08.030Z,3.97
2023-05-13T17:53:09.871Z,3.92
2023-05-13T17:58:10.670Z,4.20
2023-05-13T18:03:12.978Z,4.43
2023-05-13T18:08:13.681Z,3.88
2023-05-13T18:13:14.460Z,3.63
2023-05-13T18:18:17.659Z,4.40
2023-05-13T18:23:18.735Z,3.90
2023-05-13T18:28:19.388Z,3.83
2023-05-13T18:33:21.853Z,4.10
2023-05-13T18:38:22.548Z,4.20
2023-05-13T18:43:23.242Z,4.18
2023-05-13T18:48:25.927Z,4.50
2023-05-13T18:53:26.856Z,4.78
2023-05-13T18:58:28.605Z,4.28
2023-05-13T19:03:30.754Z,4.38
2023-05-13T19:08:31.535Z,5.13
2023-05-13T19:13:43.414Z,4.35
2023-05-13T19:18:48.982Z,4.90
2023-05-13T19:23:50.120Z,4.93
2023-05-13T19:28:50.812Z,5.20
2023-05-13T19:33:53.451Z,5.03
2023-05-13T19:38:54.335Z,5.53
2023-05-13T19:43:55.066Z,5.05
2023-05-13T19:48:57.099Z,5.03
2023-05-13T19:53:58.030Z,5.13
2023-05-13T19:58:58.751Z,5.40
2023-05-13T20:04:01.038Z,5.40
2023-05-13T20:09:02.897Z,4.97
2023-05-13T20:14:04.170Z,5.43
2023-05-13T20:19:06.444Z,4.93
2023-05-13T20:24:08.204Z,5.90
2023-05-13T20:29:09.160Z,4.90
2023-05-13T20:34:11.389Z,5.38
2023-05-13T20:39:12.208Z,6.75
2023-05-13T20:44:15.825Z,6.07
2023-05-13T20:49:18.341Z,7.03
2023-05-13T20:54:19.077Z,9.80
2023-05-13T20:59:19.834Z,8.02
2023-05-13T21:04:21.915Z,7.60
2023-05-13T21:09:22.625Z,7.70
2023-05-13T21:14:23.360Z,7.25
2023-05-13T21:19:26.010Z,7.20
2023-05-13T21:24:26.717Z,6.97
2023-05-13T21:29:27.397Z,6.90
2023-05-13T21:34:29.582Z,6.95
2023-05-13T21:39:30.334Z,7.75
2023-05-13T21:44:31.038Z,6.97
2023-05-13T21:49:33.152Z,7.25
2023-05-13T21:54:33.917Z,6.88
2023-05-13T21:59:34.685Z,7.18
2023-05-13T22:04:36.863Z,7.30
2023-05-13T22:09:37.590Z,7.00
2023-05-13T22:14:38.301Z,6.90
2023-05-13T22:19:40.425Z,6.90
2023-05-13T22:24:41.264Z,7.05
2023-05-13T22:29:41.944Z,6.30
2023-05-13T22:34:44.277Z,6.50
2023-05-13T22:39:44.993Z,7.05
2023-05-13T22:44:45.677Z,6.85
2023-05-13T22:49:47.668Z,6.35
2023-05-13T22:54:48.366Z,7.45
2023-05-13T22:59:49.151Z,7.43
2023-05-13T23:04:51.183Z,9.32
2023-05-13T23:09:52.009Z,9.15
2023-05-13T23:14:52.817Z,9.85
2023-05-13T23:19:54.851Z,9.13
2023-05-13T23:24:55.659Z,8.98
2023-05-13T23:29:56.346Z,10.65
2023-05-13T23:34:58.367Z,9.70
2023-05-13T23:39:59.020Z,10.82
2023-05-13T23:44:59.704Z,10.57
2023-05-13T23:50:02.298Z,10.50
2023-05-13T23:55:03.440Z,10.25
